Home > Products > Valid Products > TAF

000
FTUS46 KMFR 270551 CCB
TAFMFR
TAF COR
KMFR 270551Z 2706/2806 VRB02KT 5SM BR OVC005
     FM271200 00000KT 1SM BR BKN003 BKN006 OVC140
     FM271700 VRB03KT 4SM BR BKN006 BKN070 OVC140
     FM272000 18004KT P6SM BKN015 BKN070 OVC120
     FM272200 18004KT P6SM SCT050 OVC080
     FM280000 VRB04KT P6SM -RA BKN050 OVC080=



000
FTUS46 KMFR 270547 CCA
TAFLMT
TAF COR
KLMT 270547Z 2706/2806 18004KT P6SM BKN150
     FM272100 19008G15KT P6SM FEW060 OVC120
     FM280200 19007KT P6SM SCT060 OVC100=



000
FTUS46 KMFR 270544
TAFOTH
TAF
KOTH 270544Z 2706/2806 20012G18KT P6SM SCT120 OVC180 WS020/20045KT
     FM270900 19015G20KT P6SM VCSH FEW025 BKN060 OVC080
     FM271200 18015G20KT 6SM -RA BR SCT025 OVC040
     FM271500 18015G20KT 6SM -RA BR SCT020 OVC030
     FM271800 19010G17KT P6SM -SHRA SCT010 OVC025=



000
FTUS46 KMFR 270544
TAFMFR
TAF
KMFR 270544Z 2706/2806 VRB02KT 5SM BR OVC007
     FM271200 00000KT 1SM BR BKN003 BKN006 OVC140
     FM271700 VRB03KT 4SM BR BKN006 BKN070 OVC140
     FM272000 18004KT P6SM BKN015 BKN070 OVC120
     FM272200 18004KT P6SM SCT050 OVC080
     FM280000 VRB04KT P6SM -RA BKN050 OVC080=



000
FTUS46 KMFR 270544
TAFRBG
TAF
KRBG 270544Z 2706/2806 00000KT P6SM BKN140 OVC180
     FM270600 VRB03KT P6SM SCT007 SCT015
     FM270900 00000KT 5SM BR BKN007 OVC010
     FM271500 VRB03KT 6SM -RA BR FEW007 SCT040 OVC060
     FM272000 18005KT P6SM SCT025 BKN040 OVC060=



000
FTUS46 KMFR 270544
TAFLMT
TAF
KLMT 270544Z 2706/2806 18005KT P6SM BKN150=



000
FTUS46 KMFR 270137 AAB
TAFMFR
TAF AMD
KMFR 270137Z 2702/2724 VRB02KT P6SM SCT010 BKN200
     FM270300 00000KT P6SM BKN007 BKN200
     FM270500 VRB02KT 3SM BR BKN006 BKN012 OVC200
     FM271200 00000KT 1SM BR BKN003 BKN006 OVC140
     FM271700 VRB03KT 4SM BR BKN006 BKN070 OVC140=



000
FTUS46 KMFR 270031 AAA
TAFRBG
TAF AMD
KRBG 270031Z 2701/2724 00000KT P6SM BKN140 OVC180
     FM270600 VRB03KT P6SM SCT007 OVC015
     FM270900 00000KT 5SM BR BKN007 OVC015
     FM271500 VRB03KT 6SM -RA BR FEW007 SCT040 OVC060=



000
FTUS46 KMFR 262354
TAFOTH
TAF
KOTH 262354Z 2700/2724 17007KT P6SM SCT140 OVC180 WS020/20045KT
     FM270900 19012G17KT P6SM VCSH FEW030 BKN060 OVC100
     FM271200 18012G18KT 6SM -RA BR SCT020 OVC030
     FM271800 19010G17KT P6SM -SHRA SCT010 OVC025=



000
FTUS46 KMFR 262354
TAFRBG
TAF
KRBG 262354Z 2700/2724 00000KT P6SM OVC180
     FM270500 18005KT 3SM BR OVC015
     FM270800 18006KT 5SM -RA BR OVC010=



000
FTUS46 KMFR 262354
TAFLMT
TAF
KLMT 262354Z 2700/2724 20009KT P6SM BKN150=



000
FTUS46 KMFR 262354
TAFMFR
TAF
KMFR 262354Z 2700/2724 28003KT P6SM BKN010 BKN200
      TEMPO 2700/2701 SCT010
     FM270300 00000KT P6SM BKN007 BKN200
     FM270500 VRB02KT 3SM BR BKN006 BKN012 OVC200
     FM271200 00000KT 1SM BR BKN003 BKN006 OVC140
     FM271700 VRB03KT 4SM BR BKN006 BKN070 OVC140=



000
FTUS46 KMFR 262253 AAC
TAFMFR
TAF AMD
KMFR 262253Z 2623/2718 VRB03KT P6SM SCT010 BKN200
      TEMPO 2623/2624 BKN010
     FM270300 VRB03KT P6SM BKN200
     FM270500 VRB02KT 6SM BR BKN008 BKN015 OVC200
     FM271200 00000KT 2SM BR BKN004 BKN014 OVC140
     FM271700 VRB03KT 4SM BR BKN006 BKN070 OVC140=



000
FTUS46 KMFR 262019 AAB
TAFLMT
TAF AMD
KLMT 262019Z 2620/2718 VRB03KT P6SM FEW002 SCT010
     FM262100 17007KT P6SM FEW010 BKN200
     FM262300 20009KT P6SM BKN150=



000
FTUS46 KMFR 261956 AAB
TAFMFR
TAF AMD
KMFR 261956Z 2620/2718 VRB02KT 6SM BR OVC007
     FM262200 VRB03KT P6SM SCT008 BKN150
     FM270700 VRB03KT 1SM BR VCFG OVC003=



000
FTUS46 KMFR 261956 AAA
TAFLMT
TAF AMD
KLMT 261956Z 2620/2718 VRB02KT 4SM BR OVC002
     FM262100 19005KT 6SM BR SCT005 BKN200
     FM262300 18006KT P6SM BKN150=



000
FTUS46 KMFR 261742 AAA
TAFRBG
TAF AMD
KRBG 261742Z 2618/2718 VRB03KT P6SM SCT007
     FM262000 VRB03KT P6SM SCT012 BKN150
     FM270500 18005KT 3SM BR OVC015
     FM270800 18006KT 5SM -RA BR OVC010=



000
FTUS46 KMFR 261736
TAFMFR
TAF
KMFR 261736Z 2618/2718 VRB02KT 3SM BR OVC004
     FM262200 VRB03KT P6SM SCT008 BKN150
     FM270700 VRB03KT 1SM BR VCFG OVC003=



000
FTUS46 KMFR 261736
TAFOTH
TAF
KOTH 261736Z 2618/2718 16008KT P6SM SCT200
     FM262000 19010G17KT P6SM BKN150
     FM270200 18014G25KT P6SM SCT020 OVC100
     FM270700 19013G22KT P6SM -RA BKN020 OVC040
     FM271300 19011G20KT 5SM -RA BR OVC012=



000
FTUS46 KMFR 261736
TAFLMT
TAF
KLMT 261736Z 2618/2718 VRB02KT 1/4SM FZFG VV002
     FM262100 19005KT 3SM BR SCT005 BKN200
     FM262300 18006KT P6SM BKN150=



000
FTUS46 KMFR 261736
TAFRBG
TAF
KRBG 261736Z 2618/2718 VRB03KT P6SM OVC007
     FM262000 VRB03KT P6SM SCT012 BKN150
     FM270500 18005KT 3SM BR OVC015
     FM270800 18006KT 5SM -RA BR OVC010=



000
FTUS46 KMFR 261516 AAB
TAFMFR
TAF AMD
KMFR 261516Z 2615/2712 00000KT 2SM BR OVC002
     FM261700 VRB02KT 5SM BR SCT003 OVC006
     FM261900 VRB03KT P6SM SCT006 BKN200
     FM270800 00000KT 5SM BR OVC010=



000
FTUS46 KMFR 261515 AAA
TAFRBG
TAF AMD
KRBG 261515Z 2615/2712 00000KT P6SM OVC003
     FM261700 00000KT P6SM FEW005 OVC010
     FM261900 VRB03KT P6SM SCT012 BKN150
     FM270600 18003KT 3SM BR OVC010=



000
FTUS46 KMFR 261450 AAB
TAFOTH
TAF AMD
KOTH 261450Z 2615/2712 16006KT P6SM FEW004 SCT200
     FM262000 19010G17KT P6SM BKN150
     FM270600 19014G22KT P6SM BKN015 OVC120=



000
FTUS46 KMFR 261344 AAA
TAFOTH
TAF AMD
KOTH 261344Z 2614/2712 16006KT P6SM BKN004 OVC008
     FM261600 17008KT P6SM SCT008 BKN015
     FM262000 19010G17KT P6SM SCT015 BKN150
     FM270600 19014G22KT P6SM BKN015 OVC120=



000
FTUS46 KMFR 261314 AAA
TAFLMT
TAF AMD
KLMT 261314Z 2613/2712 VRB02KT 1/2SM FZFG VV001
     FM261600 VRB03KT 3SM BR SCT002
     FM261700 19005KT P6SM SCT006
     FM262100 19012G21KT P6SM BKN200
     FM270400 18007KT P6SM BKN150=



000
FTUS46 KMFR 261145
TAFRBG
TAF
KRBG 261145Z 2612/2712 00000KT 1/4SM FG VV002
     FM261700 00000KT 1SM BR OVC002
     FM261900 VRB03KT P6SM SCT003 OVC007
     FM262000 VRB03KT P6SM SCT010 BKN150
     FM270600 18003KT 3SM BR OVC010=



000
FTUS46 KMFR 261145
TAFLMT
TAF
KLMT 261145Z 2612/2712 VRB02KT 3SM BR SCT002
     FM261700 19005KT P6SM SCT006
     FM262100 19012G21KT P6SM BKN200
     FM270400 18007KT P6SM BKN150=



000
FTUS46 KMFR 261145
TAFOTH
TAF
KOTH 261145Z 2612/2712 14004KT 1/2SM FG OVC002
     FM261400 16005KT 2SM BR SCT003 OVC007
     FM261600 17007KT P6SM SCT008 BKN015
     FM262000 19010G17KT P6SM SCT015 BKN150
     FM270600 19014G22KT P6SM BKN015 OVC120=



000
FTUS46 KMFR 261145
TAFMFR
TAF
KMFR 261145Z 2612/2712 00000KT 2SM BR OVC005
     FM261300 00000KT 1/2SM FG VV002
     FM261700 VRB02KT 3SM BR SCT002 OVC004
     FM261900 VRB03KT P6SM SCT006 BKN200
     FM270800 00000KT 5SM BR OVC010=



000
FTUS46 KMFR 260910 AAC
TAFMFR
TAF AMD
KMFR 260910Z 2609/2706 VRB03KT 6SM BR OVC010
     FM261100 00000KT 2SM BR OVC007
     FM261300 00000KT 1/2SM FG VV002
     FM261700 VRB02KT 4SM BR SCT002 OVC004
     FM261900 VRB03KT P6SM SCT006 BKN200=



000
FTUS46 KMFR 260906 AAB
TAFLMT
TAF AMD
KLMT 260906Z 2609/2706 VRB02KT 1/2SM FZFG OVC002
     FM261600 18003KT 3SM BR BKN006
     FM261700 19005KT P6SM SCT010
     FM262100 19012G21KT P6SM BKN250=



000
FTUS46 KMFR 260713 AAB
TAFMFR
TAF AMD
KMFR 260713Z 2607/2706 VRB03KT 6SM BR FEW006 BKN015
     FM260900 00000KT 2SM BR BKN007
     FM261300 00000KT 1/2SM FG VV002
     FM261700 VRB03KT 4SM BR SCT002 BKN004
     FM261800 16003KT P6SM SCT006 BKN200=



000
FTUS46 KMFR 260708 AAA
TAFLMT
TAF AMD
KLMT 260708Z 2607/2706 VRB03KT 3SM BR BCFG FEW002 SCT010
     FM260900 VRB02KT P6SM OVC009
     FM261700 19003KT P6SM SCT010
     FM261900 19012G21KT P6SM BKN250=



000
FTUS46 KMFR 260638 AAA
TAFRBG
TAF AMD
KRBG 260638Z 2607/2706 00000KT 2SM BR BKN004 BKN010
     FM261000 00000KT 1SM BR OVC002
     FM261700 VRB03KT P6SM SCT003 BKN007 BKN250
     FM262000 VRB03KT P6SM SCT012 BKN250=



000
FTUS46 KMFR 260543
TAFLMT
TAF
KLMT 260543Z 2606/2706 28005KT P6SM FEW200
     FM260700 VRB03KT 6SM BR BCFG FEW002 SCT010
     FM260900 VRB02KT P6SM OVC009
     FM261700 19003KT P6SM SCT010
     FM261900 19012G21KT P6SM BKN250=



000
FTUS46 KMFR 260543
TAFMFR
TAF
KMFR 260543Z 2606/2706 VRB03KT P6SM SCT080 SCT250
     FM260900 00000KT 2SM BR SCT007
     FM261300 00000KT 1/2SM FG VV002
     FM261700 VRB03KT 4SM BR SCT002 BKN004
     FM261800 16003KT P6SM SCT006 BKN200=



000
FTUS46 KMFR 260543
TAFRBG
TAF
KRBG 260543Z 2606/2706 00000KT P6SM SCT020 BKN050
     FM260900 00000KT 3SM BR BKN004 OVC015
     FM261100 00000KT 2SM BR OVC002
     FM261700 VRB03KT P6SM SCT003 BKN007 BKN250
     FM262000 VRB03KT P6SM SCT012 BKN250=



000
FTUS46 KMFR 260543
TAFOTH
TAF
KOTH 260543Z 2606/2706 00000KT 1/2SM FG OVC002
     FM261400 17005KT 2SM BR SCT003 BKN007 OVC040
     FM261600 17007KT P6SM SCT008 BKN015 BKN030
     FM261900 19010G17KT P6SM SCT030 BKN040=



000
FTUS46 KMFR 260346 AAB
TAFOTH
TAF AMD
KOTH 260346Z 2604/2624 00000KT 1/2SM FG OVC002
     FM261400 17005KT 2SM BR SCT003 BKN007 OVC040
     FM261600 17007KT P6SM SCT008 BKN015 BKN030
     FM261900 19010G17KT P6SM SCT030 BKN050=



000
FTUS46 KMFR 260346 AAB
TAFOTH
TAF AMD
KOTH 260346Z 2604/2624 00000KT 1/2SM FG OVC002
     FM261400 17005KT 2SM BR SCT003 BKN007 OVC040
     FM261600 17007KT P6SM SCT008 BKN015 BKN030
     FM261900 19010G17KT P6SM SCT030 BKN050=



000
FTUS46 KMFR 260222 AAA
TAFOTH
TAF AMD
KOTH 260222Z 2602/2624 26005KT P6SM BKN007 OVC040
      TEMPO 2602/2604 1SM BR OVC002
     FM260600 17004KT P6SM SCT008 BKN015 BKN030
     FM260900 16005KT 4SM BR SCT003 BKN007 OVC012
     FM261500 17007KT P6SM SCT007 OVC012
     FM261700 19010G17KT P6SM SCT030 BKN050=



000
FTUS46 KMFR 260008 CCA
TAFLMT
TAF COR
KLMT 260008Z 2600/2624 28005KT P6SM FEW200
     FM260700 VRB03KT 6SM BR BCFG FEW002 SCT010
     FM260900 VRB02KT P6SM OVC009
     FM261700 19003KT P6SM SCT010
     FM261900 19012G21KT P6SM BKN250=



000
FTUS46 KMFR 252354 AAA
TAFMFR
TAF AMD
KMFR 252354Z 2600/2624 35003KT P6SM FEW017 BKN050
     FM260300 VRB03KT P6SM BKN040 BKN200
     FM260900 00000KT 2SM BR SCT007
     FM261300 00000KT 1/2SM FG VV002
     FM261700 VRB03KT 4SM BR SCT002 BKN004
     FM261800 16003KT P6SM SCT006 BKN200=



000
FTUS46 KMFR 252347
TAFRBG
TAF
KRBG 252347Z 2600/2624 00000KT P6SM OVC050
     FM260600 00000KT P6SM SCT020 BKN050
     FM260900 00000KT 3SM BR BKN004 OVC015
     FM261100 00000KT 2SM BR OVC002
     FM261700 VRB03KT P6SM SCT003 BKN007 BKN250=



000
FTUS46 KMFR 252347
TAFMFR
TAF
KMFR 252347Z 2600/2624 35003KT P6SM FEW017 BKN050
     FM260300 VRB03KT P6SM BKN040 BKN200
     FM260900 00000KT 2SM BR SCT007
     FM261300 00000KT 1/2SM FG VV002
     FM261700 VRB03KT 4SM BR SCT004 BKN007=



000
FTUS46 KMFR 252347
TAFOTH
TAF
KOTH 252347Z 2600/2624 26005KT P6SM FEW007 BKN040 BKN200
     FM260600 17004KT P6SM SCT008 BKN015 BKN030
     FM260900 16005KT 4SM BR SCT003 BKN007 OVC012
     FM261500 17007KT P6SM SCT007 OVC012
     FM261700 19010G17KT P6SM SCT030 BKN050=



000
FTUS46 KMFR 252347
TAFLMT
TAF
KLMT 252347Z 2600/2624 28005KT P6SM SCT050 BKN200
     FM260800 VRB03KT 6SM BR SCT012=



000
FTUS46 KMFR 252320 AAA
TAFOTH
TAF AMD
KOTH 252320Z 2523/2618 29005KT P6SM FEW015 OVC050
     FM260300 17005KT 5SM BR OVC007
     FM260600 17005KT 1SM BR VCFG OVC003
     FM261400 16008KT 6SM BR BKN015=



000
FTUS46 KMFR 252102 AAA
TAFMFR
TAF AMD
KMFR 252102Z 2521/2618 35003KT P6SM FEW017 BKN050
     FM260300 VRB03KT P6SM BKN040 BKN200
     FM260900 00000KT 2SM BR SCT007
     FM261300 00000KT 1/2SM FG VV002
     FM261700 VRB03KT 4SM BR SCT004 BKN007=



000
FTUS46 KMFR 251741
TAFRBG
TAF
KRBG 251741Z 2518/2618 VRB02KT P6SM BKN050
     FM252200 21003KT P6SM SCT050 BKN200
     FM260300 00000KT P6SM SCT006 OVC012
     FM260700 00000KT 3SM BR OVC005
     FM261100 00000KT 1SM BR VCFG OVC003=



000
FTUS46 KMFR 251741
TAFOTH
TAF
KOTH 251741Z 2518/2618 21006KT P6SM OVC012
     FM252000 21008KT P6SM BKN015 OVC020
     FM260300 17005KT 5SM BR OVC007
     FM260600 17005KT 1SM BR VCFG OVC003
     FM261400 16008KT 6SM BR BKN015=



000
FTUS46 KMFR 251741
TAFLMT
TAF
KLMT 251741Z 2518/2618 18004KT P6SM SCT025 BKN050
     FM252000 24004KT P6SM SCT050 BKN200
     FM260800 VRB03KT 6SM BR SCT012=



000
FTUS46 KMFR 251741
TAFMFR
TAF
KMFR 251741Z 2518/2618 00000KT P6SM SCT025 BKN035
     FM252000 VRB02KT P6SM SCT040 BKN060
     FM261100 00000KT 4SM BR OVC007
     FM261300 00000KT 1SM BR VCFG OVC003=



000
FTUS46 KMFR 251418 AAA
TAFLMT
TAF AMD
KLMT 251418Z 2514/2612 14007KT P6SM BKN018 OVC035
     FM251800 20003KT P6SM SCT025 BKN050
     FM251900 24004KT P6SM SCT050 BKN200=



000
FTUS46 KMFR 251417 AAA
TAFOTH
TAF AMD
KOTH 251417Z 2514/2612 19007KT P6SM -DZ OVC009
     FM252100 20008KT P6SM BKN012 OVC025
     FM260400 17005KT 5SM BR OVC007=



000
FTUS46 KMFR 251413 AAA
TAFRBG
TAF AMD
KRBG 251413Z 2514/2612 00000KT 5SM BR SCT030 OVC050
     FM251900 VRB03KT P6SM FEW035 BKN050
     FM252200 21003KT P6SM SCT050 BKN200
     FM260400 00000KT P6SM SCT006 OVC012
     FM260800 00000KT 1SM BR OVC003=



000
FTUS46 KMFR 251409 AAA
TAFMFR
TAF AMD
KMFR 251409Z 2514/2612 00000KT P6SM BKN025 OVC035
     FM251700 00000KT P6SM SCT025 OVC035
     FM251900 VRB02KT P6SM SCT040 BKN060
     FM252200 VRB03KT P6SM FEW060 BKN200
     FM260800 00000KT 4SM BR OVC002=



000
FTUS46 KMFR 251143
TAFLMT
TAF
KLMT 251143Z 2512/2612 14007KT P6SM SCT025 OVC040
     FM251800 20003KT P6SM SCT025 BKN050
     FM251900 24004KT P6SM SCT050 BKN200=



000
FTUS46 KMFR 251143
TAFMFR
TAF
KMFR 251143Z 2512/2612 00000KT P6SM OVC035
     FM251900 VRB02KT P6SM SCT040 BKN060
     FM252200 VRB03KT P6SM FEW060 BKN200
     FM260800 00000KT 4SM BR OVC002=



000
FTUS46 KMFR 251143
TAFOTH
TAF
KOTH 251143Z 2512/2612 19007KT 5SM -DZ BR BKN015 OVC025
     FM251900 20008KT P6SM BKN020 OVC035
     FM260400 17005KT 5SM BR OVC007=



000
FTUS46 KMFR 251143
TAFRBG
TAF
KRBG 251143Z 2512/2612 00000KT P6SM FEW015 OVC025
     FM251400 00000KT 5SM BR OVC015
     FM251900 VRB03KT P6SM BKN020
     FM252200 21003KT P6SM SCT020 BKN050
     FM260400 00000KT P6SM SCT006 OVC012
     FM260800 00000KT 1SM BR OVC003=



000
FTUS46 KMFR 250947 AAA
TAFOTH
TAF AMD
KOTH 250947Z 2510/2606 20007KT P6SM -RA BKN015 OVC035
     FM251200 19008KT 5SM -DZ BR OVC007
     FM251900 20008KT P6SM BKN015 OVC025
     FM260400 16005KT 5SM BR OVC007=



000
FTUS46 KMFR 250751 AAA
TAFLMT
TAF AMD
KLMT 250751Z 2508/2606 00000KT P6SM SCT025 OVC050
     FM251200 00000KT P6SM BKN015 OVC025
     FM251800 20003KT P6SM SCT025 BKN050
     FM251900 24004KT P6SM SCT050 BKN200=



000
FTUS46 KMFR 250538
TAFLMT
TAF
KLMT 250538Z 2506/2606 00000KT P6SM BKN025 OVC050
     FM251200 00000KT P6SM BKN010 OVC015
     FM251800 20003KT P6SM BKN020
     FM251900 24004KT P6SM SCT040=



000
FTUS46 KMFR 250538
TAFMFR
TAF
KMFR 250538Z 2506/2606 00000KT P6SM OVC040
     FM251100 00000KT P6SM SCT007 OVC015
     FM251200 00000KT P6SM OVC007
     FM251500 VRB02KT P6SM OVC012
     FM252000 VRB03KT P6SM SCT020=



000
FTUS46 KMFR 250538
TAFOTH
TAF
KOTH 250538Z 2506/2606 20007KT P6SM -RA BKN015 OVC020
     FM250900 19008KT 5SM -DZ BR OVC007
     FM251900 20008KT P6SM BKN015 OVC025
     FM260400 16005KT 5SM BR OVC007=



000
FTUS46 KMFR 250538
TAFRBG
TAF
KRBG 250538Z 2506/2606 00000KT P6SM -RA BKN040 OVC050
     FM251000 00000KT 6SM -DZ SCT007 OVC015
     FM251100 00000KT 5SM BR OVC007
     FM252100 VRB03KT P6SM SCT007 BKN020
     FM252200 21003KT P6SM SCT020 BKN050
     FM260400 00000KT P6SM OVC015=



000
FTUS46 KMFR 242347
TAFMFR
TAF
KMFR 242347Z 2500/2524 VRB03KT P6SM SCT015 BKN200
     FM250300 00000KT 5SM -RA BR BKN020 OVC040
     FM250700 00000KT 4SM BR FEW005 OVC010
     FM251500 VRB02KT P6SM OVC012
     FM252000 VRB03KT P6SM SCT020=



000
FTUS46 KMFR 242347
TAFOTH
TAF
KOTH 242347Z 2500/2524 19007KT P6SM -RA BKN020 OVC035
     FM250600 20006KT 4SM -RADZ BKN010 OVC015
     FM251900 20008KT P6SM VCSH BKN020=



000
FTUS46 KMFR 242347
TAFLMT
TAF
KLMT 242347Z 2500/2524 24007KT P6SM SCT050 BKN100 BKN150
     FM250600 00000KT P6SM BKN020
     FM251200 00000KT 3SM BR OVC008
     FM251800 24003KT P6SM BKN020=



000
FTUS46 KMFR 242347
TAFRBG
TAF
KRBG 242347Z 2500/2524 18007KT P6SM -SHRA SCT035 BKN050 BKN100
     FM250300 00000KT 5SM -RADZ BR SCT015 OVC020
     FM250600 00000KT 3SM BR BKN005 OVC010
     FM251200 00000KT 1/4SM FG VV002
     FM251800 VRB03KT 5SM BR BKN020=



000
FTUS46 KMFR 241738
TAFLMT
TAF
KLMT 241738Z 2418/2518 VRB04KT P6SM SCT150
     FM242200 24007KT P6SM BKN100 BKN150=



000
FTUS46 KMFR 241738
TAFMFR
TAF
KMFR 241738Z 2418/2518 VRB03KT P6SM OVC015
     FM242000 VRB03KT P6SM SCT015 BKN200
     FM250300 00000KT 5SM -RA BR BKN020 OVC040
     FM250700 00000KT 4SM BR FEW005 OVC010=



000
FTUS46 KMFR 241738
TAFRBG
TAF
KRBG 241738Z 2418/2518 VRB03KT P6SM SCT050 BKN150
     FM242100 18007KT P6SM -RA SCT035 OVC050
     FM250100 00000KT 5SM -RADZ BR SCT015 OVC020
     FM250600 00000KT 3SM BR BKN005 OVC010
     FM251200 00000KT 1/4SM FG VV002=



000
FTUS46 KMFR 241738
TAFOTH
TAF
KOTH 241738Z 2418/2518 17008KT P6SM SCT050 BKN120
     FM242100 20011KT 5SM -RA SCT020 OVC040
     FM250600 20006KT 4SM -RADZ BKN010 OVC015=



000
FTUS46 KMFR 241706 AAA
TAFMFR
TAF AMD
KMFR 241706Z 2417/2512 VRB03KT P6SM OVC015
     FM242000 VRB03KT P6SM SCT015 BKN200
     FM250300 00000KT 5SM -RA BR BKN020 OVC040
     FM250700 00000KT 4SM BR FEW005 OVC010=



000
FTUS46 KMFR 241157 CCA
TAFLMT
TAF COR
KLMT 241157Z 2412/2512 VRB03KT P6SM OVC150
     FM242100 21004KT P6SM SCT050 OVC070
     FM250000 24004KT P6SM VCSH SCT025 OVC035
     FM250300 25004KT P6SM VCSH SCT010 BKN020 OVC035=



000
FTUS46 KMFR 241148
TAFLMT
TAF
KLMT 241148Z 2412/2512 VRB03KT P6SM OVC150
     FM242100 23005KT P6SM SCT050 OVC070
     FM250000 26004KT P6SM VCSH SCT020 OVC035=



000
FTUS46 KMFR 241148
TAFRBG
TAF
KRBG 241148Z 2412/2512 00000KT 1/4SM FG VV002
     FM241600 VRB03KT 3SM BR BKN005 BKN080 OVC150
     FM241800 VRB03KT P6SM BKN006 BKN060 OVC120
     FM242000 18007KT P6SM BKN050 OVC100
     FM242100 18007KT P6SM -RA SCT035 OVC050
     FM250100 00000KT 5SM -RADZ BR SCT015 OVC020
     FM250600 00000KT 3SM BR SCT005 OVC010=



000
FTUS46 KMFR 241148
TAFOTH
TAF
KOTH 241148Z 2412/2512 14003KT P6SM FEW025 OVC150
     FM241700 16008KT P6SM FEW020 OVC050
     FM242000 18011KT 5SM -RA SCT020 OVC040
     FM250000 19012KT 5SM -RA BKN020 OVC035
     FM250300 20007KT 4SM -RADZ SCT010 OVC015
     FM250600 20006KT 4SM -RADZ BKN010 OVC015=



000
FTUS46 KMFR 241148
TAFMFR
TAF
KMFR 241148Z 2412/2512 00000KT P6SM OVC014
     FM241300 00000KT 5SM BR SCT005 OVC012
     FM241600 VRB03KT P6SM SCT008 OVC080
     FM242100 VRB03KT P6SM -RA OVC040
     FM250300 00000KT 5SM -SHRA BR BKN020 OVC040
     FM250700 00000KT 4SM BR FEW005 OVC010=



000
FTUS46 KMFR 241026 AAC
TAFRBG
TAF AMD
KRBG 241026Z 2410/2506 00000KT 1SM BR BKN002
     FM241200 00000KT 1/2SM FG OVC002
     FM241600 VRB03KT 3SM BR SCT002 OVC050
     FM241700 VRB03KT P6SM BKN050 OVC100
     FM242000 18007KT P6SM -RA SCT020 OVC040
     FM250300 00000KT 5SM -RADZ BR OVC020=



000
FTUS46 KMFR 241025 AAC
TAFMFR
TAF AMD
KMFR 241025Z 2410/2506 00000KT P6SM OVC011
     FM241200 00000KT 5SM BR OVC005
     FM241600 VRB03KT P6SM SCT008 OVC050
     FM242100 VRB03KT P6SM -RA OVC040
     FM250300 00000KT 5SM -SHRA BR BKN020 OVC040=



000
FTUS46 KMFR 241025 AAA
TAFLMT
TAF AMD
KLMT 241025Z 2410/2506 VRB03KT P6SM SCT200
     FM241200 00000KT 3SM BR SCT002 SCT200
     FM241500 00000KT P6SM SCT200
     FM242100 23005KT P6SM OVC050
     FM250000 26004KT P6SM VCSH SCT020 OVC035=



000
FTUS46 KMFR 240915 AAB
TAFRBG
TAF AMD
KRBG 240915Z 2409/2506 00000KT 1/4SM FG VV002
     FM241600 VRB03KT 3SM BR SCT002 OVC050
     FM241700 VRB03KT P6SM BKN050 OVC100
     FM242000 18007KT P6SM -RA SCT020 OVC040
     FM250300 00000KT 5SM -RADZ BR OVC020=



000
FTUS46 KMFR 240840 AAA
TAFRBG
TAF AMD
KRBG 240840Z 2409/2506 VRB03KT 1SM BR SCT002 BKN009
     FM241100 00000KT 1/4SM FG VV002
     FM241600 VRB03KT 3SM BR SCT002 OVC050
     FM241700 VRB03KT P6SM BKN050 OVC100
     FM242000 18007KT P6SM -RA SCT020 OVC040
     FM250300 00000KT 5SM -RADZ BR OVC020=



    US Dept of Commerce
    National Oceanic and Atmospheric Administration
    National Weather Service
    1325 East West Highway
    Silver Spring, MD 20910
    Page Author: NWS Internet Services Team
Disclaimer
Information Quality
Credits
Glossary
Privacy Policy
Freedom of Information Act (FOIA)
About Us
Career Opportunities